Date,TemperatureHighF,TemperatureAvgF,TemperatureLowF,DewpointHighF,DewpointAvgF,DewpointLowF,HumidityHigh,HumidityAvg,HumidityLow,PressureMaxIn,PressureMinIn,WindSpeedMaxMPH,WindSpeedAvgMPH,GustSpeedMaxMPH,PrecipitationSumIn
2013-1-1,42.3,37.9,34.3,29.9,27.0,21.8,76,65,48,30.03,29.92,14,2,14,0.00
2013-1-2,34.9,30.7,23.2,27.6,18.7,12.6,78,61,45,30.25,30.01,11,2,11,0.00
2013-1-3,42.2,28.9,17.0,21.7,16.9,12.7,88,63,35,30.27,30.15,21,2,22,0.00
2013-1-4,37.9,32.3,29.3,20.3,18.6,17.3,63,57,46,30.25,30.18,22,4,22,0.00
2013-1-5,45.8,34.0,26.3,25.7,20.0,14.5,75,58,30,30.39,30.16,14,1,17,0.00
2013-1-6,44.1,37.7,29.7,29.9,26.6,24.8,84,65,50,30.20,30.03,22,2,22,0.00
2013-1-7,41.1,33.7,22.3,28.1,24.1,19.5,90,69,51,30.48,30.20,14,2,17,0.00
2013-1-8,55.5,30.8,18.1,33.8,23.4,15.9,92,77,31,30.45,30.33,5,0,5,0.00
2013-1-9,60.5,40.5,24.3,45.1,30.7,22.3,94,71,38,30.47,30.24,21,2,24,0.00
2013-1-10,54.1,42.0,31.9,31.8,29.1,25.8,81,62,37,30.62,30.41,11,0,13,0.00
2013-1-11,44.5,38.2,31.9,40.7,34.7,28.8,97,87,68,30.43,30.09,10,0,10,0.05
2013-1-12,65.3,47.6,38.2,51.1,44.1,37.9,99,89,59,30.17,30.05,4,0,4,0.00
2013-1-13,63.2,50.8,41.2,54.8,48.1,40.8,99,91,75,30.06,29.91,11,0,11,0.02
2013-1-14,63.0,48.1,35.2,56.5,41.8,33.5,97,79,67,30.33,29.91,14,3,18,0.27
2013-1-15,37.5,35.5,33.1,36.3,34.2,32.4,98,95,88,30.36,30.13,8,1,10,0.59
2013-1-16,41.1,36.9,33.0,39.4,35.8,32.5,99,96,77,30.15,29.82,18,1,18,0.28
2013-1-17,41.8,37.7,33.0,34.9,26.7,18.1,88,66,40,30.17,30.00,20,1,21,0.01
2013-1-18,40.9,32.5,26.9,23.5,14.5,6.1,68,49,25,30.52,30.14,22,4,24,0.00
2013-1-19,60.3,43.5,25.4,21.6,18.3,12.6,75,40,17,30.35,29.89,17,4,21,0.00
2013-1-20,50.1,43.2,31.1,29.0,14.9,2.6,50,32,19,30.09,29.83,29,6,32,0.00
2013-1-21,43.6,29.5,20.3,19.9,12.5,1.7,72,50,22,30.09,29.83,33,5,34,0.00
2013-1-22,20.8,15.4,10.2,5.7,-5.3,-9.2,55,39,27,30.32,30.03,29,6,29,0.00
2013-1-23,23.1,17.7,12.3,15.3,0.4,-6.8,87,49,26,30.37,30.09,16,2,16,0.00
2013-1-24,24.0,17.2,8.3,15.4,6.0,-0.9,88,64,36,30.59,30.08,19,2,19,0.00
2013-1-25,20.1,15.0,7.8,15.9,10.0,2.1,87,80,63,30.58,30.08,6,1,6,0.00
2013-1-26,32.2,27.6,17.4,23.9,18.2,13.9,88,68,56,30.47,30.08,19,2,19,0.07
2013-1-27,39.8,29.1,20.8,20.8,16.7,11.6,70,60,43,30.59,30.41,6,0,6,0.02
2013-1-28,57.6,39.3,28.7,48.5,34.4,19.6,98,83,66,30.43,30.05,19,1,19,0.08
2013-1-29,75.0,59.1,47.3,53.9,49.2,45.1,98,72,41,30.10,29.83,13,2,13,0.00
2013-1-30,72.2,59.7,51.5,58.1,53.6,48.0,100,82,57,29.88,29.20,29,4,32,0.94
2013-1-31,51.9,33.7,28.0,51.9,21.6,11.3,100,62,44,29.91,29.20,33,8,33,0.04
2013-2-1,29.0,19.6,11.3,23.2,6.5,-0.8,88,57,41,30.42,29.83,24,5,28,0.00
2013-2-2,33.4,20.5,9.4,24.3,12.9,2.7,92,74,41,30.41,29.99,13,0,14,0.00
2013-2-3,34.6,28.2,24.8,26.4,19.4,9.4,94,71,49,30.03,29.82,22,3,22,0.01
2013-2-4,39.2,29.1,20.4,28.1,17.4,8.4,96,64,36,30.09,29.85,21,2,25,0.00
2013-2-5,43.2,34.6,28.5,38.2,31.2,27.5,97,88,57,29.94,29.82,19,1,22,0.07
2013-2-6,39.8,34.3,24.4,33.7,25.8,21.1,93,72,57,30.36,29.93,18,3,21,0.00
2013-2-7,38.3,31.2,23.4,30.6,24.9,21.0,93,78,66,30.41,30.11,13,1,13,0.00
2013-2-8,41.1,35.7,30.2,33.6,27.3,18.4,81,71,59,30.14,29.81,26,3,26,0.00
2013-2-9,40.3,30.2,19.8,20.2,15.0,10.5,78,54,31,30.42,30.11,21,4,21,0.00
2013-2-10,44.7,31.0,14.9,29.0,17.7,11.8,90,62,33,30.46,30.10,12,1,14,0.01
2013-2-11,67.3,51.1,38.2,47.0,31.8,16.6,86,53,18,30.14,29.70,31,8,38,0.02
2013-2-12,56.6,44.0,31.2,26.4,21.1,15.5,71,42,20,29.98,29.85,30,4,33,0.00
2013-2-13,40.5,32.1,25.9,32.7,27.1,20.6,98,83,56,29.95,29.68,5,0,7,0.07
2013-2-14,50.1,35.7,25.6,31.9,27.0,22.1,98,73,39,30.02,29.83,15,1,16,0.07
2013-2-15,52.1,35.9,28.1,34.2,29.6,25.3,95,80,46,30.06,29.95,13,1,13,0.02
2013-2-16,35.5,30.6,23.8,29.3,18.4,10.5,89,60,45,30.01,29.91,13,3,13,0.01
2013-2-17,25.3,21.7,17.6,17.9,8.1,3.4,86,56,43,30.29,29.92,30,6,30,0.00
2013-2-18,49.4,31.7,12.8,21.1,11.7,4.2,75,46,23,30.40,30.04,12,1,12,0.00
2013-2-19,52.9,41.5,32.7,36.3,26.3,15.7,78,55,36,30.05,29.68,27,6,31,0.03
2013-2-20,33.3,27.6,21.9,17.9,11.6,8.4,58,51,39,30.23,29.90,28,7,28,0.00
2013-2-21,34.3,26.1,20.4,16.0,12.5,8.1,70,56,43,30.36,30.20,18,3,18,0.00
2013-2-22,37.2,29.1,24.3,28.7,23.3,16.0,90,79,68,30.37,30.13,11,1,11,0.02
2013-2-23,51.9,36.5,28.8,36.1,29.6,25.4,90,77,54,30.14,29.83,8,1,8,0.01
2013-2-24,45.8,34.3,25.1,30.6,23.2,14.4,96,67,33,30.17,29.85,22,4,22,0.00
2013-2-25,45.8,31.2,20.1,21.6,18.1,14.5,83,61,35,30.26,30.13,8,1,8,0.00
2013-2-26,35.5,30.2,23.8,34.2,27.2,18.5,98,89,73,30.20,29.65,8,1,8,0.46
2013-2-27,48.1,39.4,32.2,39.8,32.0,28.4,99,77,52,29.71,29.62,20,2,20,0.04
2013-2-28,40.5,37.2,34.9,30.7,25.7,22.9,76,63,51,29.81,29.66,19,4,20,0.00
2013-3-1,36.8,33.9,29.1,26.6,23.3,19.5,74,65,56,29.95,29.79,14,3,14,0.00
2013-3-2,32.8,29.8,27.7,21.2,18.0,13.6,74,61,50,29.95,29.88,14,4,16,0.00
2013-3-3,32.4,29.0,26.2,18.1,15.3,12.2,65,56,46,30.02,29.90,18,5,18,0.00
2013-3-4,40.6,30.3,22.8,17.6,13.1,8.8,72,50,31,30.12,30.02,21,4,21,0.00
2013-3-5,52.9,37.1,25.1,31.8,20.8,11.5,96,57,24,30.10,29.71,11,1,12,0.06
2013-3-6,37.5,33.2,30.3,35.2,31.0,25.2,98,92,62,30.10,29.70,14,2,14,0.66
2013-3-7,40.3,37.0,35.0,28.2,26.6,24.0,75,66,55,30.24,30.09,18,4,18,0.17
2013-3-8,40.3,34.1,26.2,27.9,23.9,21.5,85,66,55,30.41,30.24,19,4,20,0.00
2013-3-9,58.3,36.1,21.1,28.9,23.7,19.1,94,67,23,30.44,30.25,6,0,6,0.00
2013-3-10,65.6,45.5,25.9,32.2,26.9,23.7,93,56,24,30.30,30.11,20,2,20,0.00
2013-3-11,60.3,53.9,46.4,47.3,33.7,22.6,71,48,25,30.11,29.78,18,4,25,0.00
2013-3-12,57.6,47.4,39.2,49.2,37.7,24.7,96,70,51,30.02,29.71,22,4,22,0.19
2013-3-13,42.9,34.8,28.5,29.1,22.3,14.6,86,61,34,30.14,29.95,30,5,30,0.00
2013-3-14,42.3,33.5,27.4,19.3,14.7,11.8,65,46,33,30.24,30.13,26,5,30,0.00
2013-3-15,56.2,41.3,24.8,32.8,24.2,14.7,74,52,34,30.15,29.81,19,3,20,0.00
2013-3-16,54.6,46.1,39.8,43.9,38.4,32.0,90,75,54,29.88,29.60,14,2,14,0.01
2013-3-17,43.1,36.7,32.4,38.9,30.4,25.6,93,78,65,30.24,29.88,14,1,14,0.00
2013-3-18,34.0,32.0,30.0,33.0,30.5,28.8,98,94,84,30.26,29.86,9,0,10,0.34
2013-3-19,53.2,40.7,31.5,37.8,22.3,4.3,99,58,16,29.98,29.76,40,7,40,0.10
2013-3-20,48.2,38.7,30.6,29.3,13.8,6.4,90,39,21,30.01,29.78,31,6,31,0.00
2013-3-21,31.7,27.1,23.7,23.5,12.6,5.1,78,55,34,29.96,29.83,21,4,25,0.00
2013-3-22,44.7,33.3,25.6,17.3,13.6,9.6,61,45,28,30.04,29.92,21,4,22,0.00
2013-3-23,52.5,35.6,20.4,23.2,17.6,13.2,86,53,23,30.07,29.94,14,2,17,0.00
2013-3-24,39.6,31.1,25.9,30.3,24.4,19.0,97,77,44,30.00,29.61,7,0,8,0.00
2013-3-25,37.6,32.5,29.6,34.7,30.8,25.8,98,93,70,29.74,29.53,11,0,11,0.55
2013-3-26,43.3,37.3,32.8,29.4,26.9,23.5,82,66,49,30.08,29.74,16,3,18,0.04
2013-3-27,44.2,37.4,30.8,28.5,25.5,21.5,82,62,46,30.17,30.08,21,5,21,0.01
2013-3-28,45.7,39.3,35.6,29.2,25.3,23.2,65,57,47,30.27,30.14,20,4,21,0.00
2013-3-29,53.8,43.2,34.8,30.7,26.1,18.1,76,53,27,30.28,30.16,14,2,16,0.00
2013-3-30,59.4,42.2,27.5,30.6,24.9,18.9,90,57,22,30.28,30.07,12,1,12,0.00
2013-3-31,44.2,38.7,33.9,42.3,35.6,27.1,98,89,66,30.08,29.77,8,0,8,0.17
2013-4-1,52.6,44.3,37.5,42.7,31.9,13.6,98,64,34,30.02,29.76,21,5,25,0.01
2013-4-2,44.8,37.1,29.3,17.1,11.9,5.8,56,36,22,30.20,30.02,22,4,27,0.00
2013-4-3,48.2,34.6,21.2,20.0,13.5,5.9,80,46,20,30.41,30.20,22,3,22,0.00
2013-4-4,52.2,35.3,20.4,32.3,16.8,12.9,81,51,21,30.42,30.03,16,2,17,0.00
2013-4-5,61.3,47.5,35.5,38.0,29.2,21.2,92,56,24,30.10,29.87,16,3,20,0.00
2013-4-6,63.2,45.2,26.3,23.7,18.2,9.3,74,38,14,30.32,30.09,17,2,17,0.00
2013-4-7,74.8,58.7,49.2,41.5,31.5,17.3,64,37,26,30.16,29.89,19,4,25,0.00
2013-4-8,81.2,63.2,45.2,47.0,42.1,37.9,84,51,22,30.07,29.87,17,1,19,0.00
2013-4-9,87.0,70.6,54.3,53.0,48.2,44.7,74,48,25,30.07,29.88,16,2,16,0.00
2013-4-10,89.3,72.1,54.1,55.6,50.3,46.0,81,51,24,29.96,29.75,22,3,22,0.00
2013-4-11,86.2,70.4,52.6,57.9,51.3,45.8,89,55,27,29.86,29.61,17,2,18,0.00
2013-4-12,76.2,64.0,51.8,63.7,50.3,33.3,99,66,28,29.83,29.53,22,4,22,0.89
2013-4-13,67.1,55.6,47.3,36.0,30.5,20.9,57,40,20,29.98,29.81,22,5,25,0.00
2013-4-14,69.3,55.2,40.9,40.5,34.6,28.3,72,48,27,30.15,29.97,10,1,12,0.00
2013-4-15,63.8,57.6,52.8,50.8,46.7,40.6,89,68,52,30.20,30.05,17,2,17,0.02
2013-4-16,84.3,68.0,56.3,59.9,53.8,50.3,89,63,35,30.20,30.01,21,4,21,0.17
2013-4-17,77.5,66.2,55.9,62.0,58.2,55.6,99,78,50,30.18,30.08,10,1,10,0.08
2013-4-18,78.0,68.0,58.8,60.0,56.6,52.6,90,68,50,30.14,29.86,22,4,27,0.00
2013-4-19,74.8,64.5,49.4,61.2,52.7,34.8,96,66,52,29.87,29.52,31,4,31,0.43
2013-4-20,57.0,47.8,40.1,35.5,25.8,18.5,60,43,26,30.39,29.82,28,6,28,0.00
2013-4-21,54.9,42.1,28.5,28.6,24.4,18.9,88,53,27,30.60,30.38,13,1,13,0.00
2013-4-22,60.2,45.2,29.6,32.2,27.4,17.6,90,55,25,30.55,30.33,18,1,18,0.00
2013-4-23,70.5,50.0,32.1,43.3,36.4,29.5,93,63,29,30.35,30.05,8,1,8,0.00
2013-4-24,81.6,57.7,39.6,58.0,44.9,35.8,96,67,28,30.09,29.69,27,3,29,0.03
2013-4-25,66.1,51.3,40.2,36.5,28.2,16.9,65,44,16,30.32,30.09,16,3,17,0.00
2013-4-26,67.4,50.9,35.6,38.2,32.5,28.4,83,54,25,30.47,30.30,8,1,10,0.00
2013-4-27,74.8,55.0,35.2,41.9,36.5,30.5,94,56,22,30.42,30.20,12,1,12,0.00
2013-4-28,59.2,54.1,48.1,52.3,45.7,38.9,93,74,47,30.20,30.07,16,2,16,0.21
2013-4-29,68.4,57.6,49.5,57.2,50.4,45.4,91,77,59,30.08,29.95,13,1,14,0.02
2013-4-30,65.1,58.4,53.7,53.1,51.3,49.7,89,78,60,30.25,30.04,13,1,13,0.00
2013-5-1,75.5,61.4,51.8,52.1,42.3,26.0,89,56,19,30.36,30.25,11,1,12,0.00
2013-5-2,74.8,56.3,38.9,46.4,38.8,30.3,93,57,22,30.41,30.26,14,1,16,0.00
2013-5-3,72.0,55.4,39.6,45.9,41.3,29.2,96,63,35,30.34,30.21,14,1,14,0.00
2013-5-4,68.8,53.3,35.9,45.2,38.1,29.3,90,59,37,30.29,30.12,16,1,16,0.00
2013-5-5,68.8,54.6,37.8,40.6,36.5,29.7,94,55,26,30.20,30.06,13,2,17,0.00
2013-5-6,57.6,53.4,48.1,54.2,47.0,40.1,93,79,61,30.13,29.99,11,2,13,0.01
2013-5-7,59.4,56.8,52.2,58.3,55.6,51.9,99,96,87,29.99,29.89,11,2,12,1.70
2013-5-8,65.1,54.5,50.4,57.3,52.0,49.4,99,92,62,30.00,29.91,13,1,13,0.22
2013-5-9,76.6,59.7,47.5,58.8,51.3,44.7,99,78,33,30.01,29.92,13,1,17,0.08
2013-5-10,83.5,61.7,49.7,64.6,56.2,48.6,98,84,39,30.01,29.84,19,0,19,0.24
2013-5-11,73.2,63.7,59.9,65.0,56.5,48.0,98,79,56,29.84,29.73,16,2,16,0.12
2013-5-12,59.9,53.5,47.5,48.9,33.5,22.8,71,48,29,30.05,29.79,21,3,24,0.00
2013-5-13,54.9,46.9,36.0,33.8,28.9,20.9,82,51,30,30.20,30.05,20,2,21,0.00
2013-5-14,65.8,48.3,29.9,47.2,35.1,28.1,97,66,27,30.23,29.98,7,0,7,0.00
2013-5-15,91.1,68.6,44.4,61.2,48.6,42.5,97,57,23,29.98,29.68,24,3,24,0.00
2013-5-16,78.6,76.7,74.4,51.0,49.3,47.4,43,38,34,29.77,29.76,19,3,19,0.00
2013-5-21,91.9,81.2,70.8,65.6,63.2,56.0,79,56,31,29.86,29.79,8,0,8,0.00
2013-5-22,86.8,70.0,62.2,66.1,62.3,55.2,98,80,39,29.89,29.82,20,1,20,0.26
2013-5-23,80.8,69.3,61.6,67.1,60.4,53.0,99,77,45,29.85,29.70,18,1,22,0.01
2013-5-24,66.9,53.3,43.3,55.4,39.9,28.6,84,61,42,30.26,29.76,19,3,20,0.02
2013-5-25,62.9,50.7,37.9,38.1,33.2,29.5,74,53,33,30.30,30.18,20,2,20,0.00
2013-5-26,70.6,53.9,35.6,40.3,33.6,23.6,95,54,19,30.27,30.16,13,1,13,0.00
2013-5-27,63.8,52.6,38.6,53.3,43.8,35.8,92,73,55,30.31,30.16,4,0,5,0.00
2013-5-28,84.5,64.7,51.2,63.1,55.1,49.8,97,75,37,30.18,30.00,11,1,14,0.00
2013-5-29,90.4,73.0,56.3,63.0,58.5,52.5,98,66,29,30.11,30.02,12,1,13,0.00
2013-5-30,91.7,75.1,57.6,67.6,59.7,52.9,97,63,29,30.18,30.06,7,0,8,0.00
2013-5-31,91.9,75.4,57.3,65.0,58.5,52.0,96,61,27,30.14,29.96,14,1,21,0.00
2013-6-1,91.7,78.5,67.6,72.1,62.6,58.4,81,60,35,30.02,29.84,13,2,13,0.05
2013-6-2,81.2,72.4,65.6,67.8,63.4,59.3,94,74,54,29.86,29.81,14,1,14,0.17
2013-6-3,76.4,67.4,59.9,65.8,60.3,52.9,98,80,54,30.00,29.84,11,1,11,0.01
2013-6-4,78.4,62.7,48.5,53.4,46.4,38.1,96,60,27,30.14,29.99,8,0,8,0.00
2013-6-5,82.0,64.8,48.2,58.4,53.0,46.1,95,69,39,30.15,29.96,16,1,17,0.00
2013-6-6,70.5,64.7,61.1,63.7,59.2,55.0,97,84,60,29.98,29.81,12,1,16,0.50
2013-6-7,67.9,64.9,62.4,66.6,63.5,59.4,98,95,87,29.82,29.65,8,0,11,0.17
2013-6-8,80.8,67.2,58.0,63.6,59.0,56.3,98,78,47,30.10,29.78,7,0,8,0.00
2013-6-9,82.2,68.4,57.9,66.2,61.6,56.8,98,81,56,30.17,30.03,7,0,8,0.00
2013-6-10,76.7,67.9,63.7,71.9,66.4,62.8,99,95,80,30.06,29.77,13,0,16,0.63
2013-6-11,78.2,69.6,60.2,64.4,61.2,59.1,98,77,55,29.87,29.80,17,2,17,0.01
2013-6-12,88.3,75.4,63.2,68.4,63.8,59.6,92,69,43,29.88,29.76,11,1,17,0.00
2013-6-13,78.9,67.5,64.0,68.7,63.1,53.5,98,86,64,29.79,29.49,26,2,26,1.62
2013-6-14,77.5,67.2,59.2,56.6,52.8,46.8,81,62,35,30.02,29.69,14,1,14,0.00
2013-6-15,83.0,67.4,53.2,60.1,52.8,43.9,93,65,27,30.10,29.98,10,0,11,0.00
2013-6-16,77.8,69.0,58.8,64.2,59.0,54.5,88,71,54,30.03,29.89,16,1,16,0.00
2013-6-17,86.8,74.5,63.8,66.4,62.8,58.8,91,69,43,29.95,29.85,10,0,10,0.00
2013-6-18,75.7,68.8,64.5,67.8,64.2,61.2,95,86,62,29.90,29.81,11,0,11,0.30
2013-6-19,78.4,67.9,61.9,62.5,59.8,56.9,96,77,49,30.12,29.90,8,1,8,0.00
2013-6-20,85.7,70.9,59.9,66.4,61.1,55.5,97,74,38,30.21,30.12,11,1,12,0.00
2013-6-21,87.4,73.8,60.3,66.6,61.5,54.5,96,68,33,30.25,30.14,8,0,8,0.00
2013-6-22,90.6,76.0,61.7,68.6,61.1,57.8,89,62,35,30.20,30.06,11,1,11,0.00
2013-6-23,92.8,75.4,62.2,68.6,63.2,54.4,96,69,28,30.17,30.02,11,0,13,0.02
2013-6-24,88.3,73.0,63.0,71.2,65.2,58.8,93,78,44,30.13,30.00,22,1,26,0.36
2013-6-25,92.6,78.1,64.5,71.7,65.3,57.7,97,69,34,30.05,29.87,13,1,13,0.00
2013-6-26,85.5,73.4,65.1,73.3,67.1,62.1,92,82,51,29.91,29.81,12,0,13,0.35
2013-6-27,79.9,71.2,64.5,69.8,65.8,63.6,98,84,62,29.82,29.62,11,0,13,0.03
2013-6-28,84.9,72.1,65.0,69.9,64.5,59.5,94,78,47,29.63,29.48,16,1,16,0.05
2013-6-29,86.6,72.0,61.1,64.8,60.2,55.3,92,69,35,29.68,29.52,12,1,13,0.00
2013-6-30,87.4,71.4,62.7,71.6,65.2,60.8,96,82,45,29.82,29.67,9,0,9,0.07
2013-7-1,86.2,74.3,66.8,70.1,66.5,64.0,98,79,50,29.91,29.80,13,0,14,0.03
2013-7-2,82.6,74.8,67.8,70.1,66.5,63.1,94,76,58,30.08,29.90,12,1,13,0.00
2013-7-3,87.0,75.7,70.6,71.3,67.7,63.5,89,77,47,30.17,30.07,14,1,15,0.02
2013-7-4,90.0,78.2,68.1,72.4,67.5,65.3,94,72,45,30.19,30.09,13,2,16,0.01
2013-7-5,90.4,79.6,69.1,70.6,66.7,63.7,88,66,45,30.16,30.06,19,2,19,0.00
2013-7-6,93.0,80.4,68.3,69.9,66.6,62.2,94,66,40,30.17,30.00,13,1,14,0.00
2013-7-7,88.3,73.8,67.6,75.0,67.5,64.5,94,82,53,30.08,29.98,12,0,12,1.01
2013-7-8,86.0,73.8,64.5,67.6,64.8,61.4,98,76,47,30.11,30.02,11,1,12,0.01
2013-7-9,86.8,74.9,67.9,71.0,67.2,63.7,91,78,52,30.09,29.97,12,1,12,0.05
2013-7-10,87.0,75.4,68.9,74.7,69.4,62.2,97,83,58,30.01,29.81,13,1,17,0.05
2013-7-11,82.0,73.3,65.3,67.9,65.2,63.1,96,77,56,29.97,29.84,10,1,11,1.45
2013-7-12,67.1,65.1,63.0,65.4,64.0,62.4,99,96,90,30.08,29.94,7,0,8,0.51
2013-7-13,82.6,72.5,64.3,73.1,66.5,63.7,99,83,59,30.22,30.07,6,0,6,0.00
2013-7-14,88.5,77.6,66.6,71.8,67.0,64.4,98,73,47,30.29,30.21,16,1,16,0.01
2013-7-15,95.6,78.5,65.4,72.9,67.3,62.1,98,72,37,30.32,30.19,6,0,6,0.00
2013-7-16,92.8,78.3,67.3,76.2,69.9,65.6,97,78,48,30.28,30.16,10,0,10,0.35
2013-7-17,93.0,79.3,69.6,74.3,71.0,66.1,98,79,44,30.26,30.09,6,0,8,0.01
2013-7-18,92.8,80.5,70.6,75.7,71.4,67.5,96,75,47,30.14,30.00,8,0,8,0.00
2013-7-19,95.3,76.3,68.4,75.5,69.9,66.5,96,82,43,30.02,29.87,18,1,18,0.83
2013-7-20,90.6,77.6,67.9,72.7,68.5,64.1,97,76,44,29.91,29.79,13,1,13,0.00
2013-7-21,85.1,73.7,66.3,71.4,67.0,63.6,92,80,53,29.95,29.87,11,0,11,0.01
2013-7-22,85.7,72.7,67.8,74.6,69.4,64.2,98,90,58,29.92,29.74,11,0,18,0.72
2013-7-23,86.6,75.7,67.6,71.2,67.7,63.4,99,79,48,29.76,29.65,12,1,12,0.14
2013-7-24,78.9,69.6,60.0,68.8,61.9,55.5,99,79,52,29.95,29.68,16,2,16,0.07
2013-7-25,79.5,65.9,56.2,58.8,55.2,50.4,95,72,39,30.07,29.94,10,1,10,0.00
2013-7-26,84.3,67.8,52.6,63.5,56.7,51.5,98,72,35,30.11,29.98,7,0,7,0.00
2013-7-27,76.0,66.8,60.3,68.5,63.4,59.2,97,89,68,30.00,29.88,18,1,18,0.07
2013-7-28,84.7,72.9,63.7,67.6,61.7,55.6,97,71,39,30.02,29.84,12,1,12,0.05
2013-7-29,78.6,66.0,53.1,57.4,54.0,50.2,97,69,38,30.18,30.01,10,1,10,0.00
2013-7-30,83.3,68.2,54.3,63.1,56.7,51.8,93,70,40,30.25,30.11,6,0,7,0.00
2013-7-31,80.4,66.6,58.6,66.9,61.2,57.1,97,84,59,30.15,29.96,13,0,13,0.00
2013-8-1,83.1,71.6,65.1,68.1,63.2,59.5,89,76,54,29.97,29.81,12,0,13,0.00
2013-8-2,85.1,71.1,59.7,63.5,59.2,52.6,97,70,35,29.96,29.88,14,1,14,0.00
2013-8-3,74.1,67.2,61.4,67.2,61.5,56.1,97,82,70,29.97,29.92,8,0,8,0.16
2013-8-4,77.8,67.2,57.6,62.3,57.8,48.8,99,76,37,30.06,29.95,14,1,14,0.01
2013-8-5,80.4,65.3,51.8,57.7,53.8,49.0,97,71,34,30.13,29.95,7,0,8,0.00
2013-8-6,82.6,69.2,59.7,65.7,60.8,56.7,97,77,46,30.03,29.95,8,0,8,0.25
2013-8-7,88.3,71.0,63.7,71.2,65.8,62.0,97,85,51,30.01,29.91,24,1,24,0.35
2013-8-8,86.0,71.6,66.8,73.3,68.9,66.2,98,92,60,30.00,29.90,20,0,27,0.85
2013-8-9,81.4,74.4,70.1,73.6,70.3,67.5,99,88,65,29.97,29.87,12,0,12,0.07
2013-8-10,84.5,73.7,67.4,69.8,67.4,59.8,98,83,48,30.07,29.96,6,0,6,0.02
2013-8-11,87.2,74.2,66.1,71.6,66.8,63.6,97,80,48,30.09,29.96,6,0,6,0.00
2013-8-12,87.6,75.1,64.8,69.6,66.1,61.8,98,77,43,30.03,29.87,8,0,8,0.00
2013-8-13,84.9,72.2,65.3,68.9,65.4,57.6,98,81,47,29.87,29.73,14,1,14,0.56
2013-8-14,67.9,58.5,51.3,58.8,51.0,46.1,92,77,62,30.03,29.85,12,1,12,0.00
2013-8-15,77.1,66.3,48.1,56.7,52.5,47.3,97,64,39,30.23,30.07,6,0,6,0.00
2013-8-16,81.6,64.1,50.6,58.8,53.6,49.5,97,73,38,30.18,30.09,7,0,10,0.00
2013-8-17,78.4,63.8,51.8,60.9,55.6,50.2,98,77,45,30.28,30.17,9,0,10,0.00
2013-8-18,68.3,63.4,59.5,61.9,60.2,58.2,98,90,73,30.26,30.15,8,0,8,0.28
2013-8-19,83.9,68.6,61.3,69.8,64.0,59.9,98,86,55,30.17,30.02,6,0,6,0.04
2013-8-20,84.7,71.4,61.1,66.7,63.1,56.4,98,78,43,30.18,30.08,6,0,7,0.00
2013-8-21,87.6,70.5,62.2,73.9,65.5,60.8,98,86,55,30.20,30.06,9,0,11,0.05
2013-8-22,87.0,73.6,65.3,68.8,65.4,62.3,98,78,49,30.08,29.94,8,0,8,0.00
2013-8-23,73.9,66.1,60.6,66.2,63.5,59.2,98,92,67,30.15,29.94,13,0,14,1.50
2013-8-24,81.6,66.1,59.1,63.1,59.3,55.9,98,82,43,30.33,30.14,6,0,7,0.00
2013-8-25,85.5,66.5,53.8,62.9,57.4,52.7,98,77,37,30.41,30.23,5,0,5,0.01
2013-8-26,87.0,70.0,56.2,64.8,59.9,54.8,97,74,41,30.27,30.02,10,0,10,0.00
2013-8-27,81.8,72.4,65.1,70.3,66.2,60.5,91,81,63,30.03,29.91,11,0,11,0.01
2013-8-28,79.5,71.5,67.9,72.4,69.0,66.1,98,92,76,29.94,29.78,7,0,7,0.69
2013-8-29,84.9,74.5,67.6,70.9,68.4,65.5,98,83,54,30.01,29.84,8,1,8,0.00
2013-8-30,90.4,74.1,63.8,71.6,66.6,63.2,98,80,43,30.03,29.83,10,0,10,0.00
2013-8-31,86.6,75.6,66.9,71.8,67.5,63.2,98,78,48,29.86,29.76,9,1,11,0.00
2013-9-1,87.6,73.8,64.0,73.3,67.9,62.8,98,84,51,29.85,29.75,5,0,6,0.01
2013-9-2,90.4,76.6,67.6,70.3,66.8,62.8,96,75,43,29.80,29.70,8,0,10,0.00
2013-9-3,80.8,70.2,59.1,65.4,59.7,52.7,95,72,39,30.00,29.76,12,1,13,0.00
2013-9-4,83.7,65.1,52.5,64.1,56.3,51.4,98,77,42,30.12,30.00,6,0,6,0.00
2013-9-5,79.9,65.5,52.8,62.4,55.3,50.8,94,73,43,30.15,30.04,12,1,16,0.00
2013-9-6,76.9,60.8,49.4,54.4,50.2,35.4,98,73,23,30.28,30.11,6,0,6,0.00
2013-9-7,83.9,63.0,47.8,61.4,52.9,46.4,98,75,34,30.15,29.93,5,0,5,0.01
2013-9-8,87.4,70.9,57.7,66.5,60.4,53.8,91,72,45,30.01,29.86,7,1,9,0.00
2013-9-9,79.3,68.3,62.1,64.7,59.5,52.6,91,74,58,30.16,30.01,10,1,10,0.00
2013-9-10,93.3,75.9,62.1,71.8,66.1,60.5,96,75,44,30.15,30.04,8,0,8,0.00
2013-9-11,94.1,76.0,66.1,72.2,68.1,64.9,98,80,42,30.15,29.97,16,0,16,0.77
2013-9-12,88.9,73.1,65.0,73.9,66.1,60.7,99,81,45,30.01,29.77,14,1,15,0.02
2013-9-13,71.3,63.7,54.7,61.4,54.7,45.0,95,74,47,29.99,29.74,11,1,12,0.02
2013-9-14,68.1,53.9,43.3,49.3,45.5,41.7,97,76,43,30.19,29.98,10,0,10,0.00
2013-9-15,80.1,58.9,42.6,61.6,51.2,41.5,98,79,42,30.23,30.04,6,0,6,0.01
2013-9-16,69.6,59.7,52.9,57.7,55.1,50.9,96,86,61,30.26,30.02,10,0,12,0.01
2013-9-17,69.3,55.4,45.0,52.3,48.5,42.3,98,80,49,30.43,30.26,10,1,10,0.00
2013-9-18,71.1,53.6,40.2,54.7,47.4,38.7,98,82,50,30.34,30.14,10,0,10,0.01
2013-9-19,78.0,60.5,51.8,61.9,55.7,50.1,97,86,51,30.18,30.03,6,0,6,0.00
2013-9-20,83.3,66.3,53.5,65.7,59.5,52.9,98,81,51,30.07,29.88,10,0,10,0.01
2013-9-21,73.6,65.6,60.0,65.2,61.3,59.4,98,86,69,29.88,29.66,13,1,13,0.57
2013-9-22,70.1,59.8,50.1,59.4,52.5,45.7,99,80,44,29.99,29.75,13,1,13,0.00
2013-9-23,66.8,53.3,45.0,49.9,45.7,41.6,97,78,46,30.13,29.99,11,1,11,0.00
2013-9-24,73.0,53.0,41.1,55.8,47.1,39.8,98,83,50,30.16,29.94,6,0,6,0.00
2013-9-25,74.1,57.5,47.9,57.5,51.8,47.4,99,84,49,30.02,29.85,8,0,8,0.00
2013-9-26,76.7,58.5,46.9,53.9,48.8,36.6,98,75,24,30.08,29.94,8,0,8,0.00
2013-9-27,75.7,57.4,43.3,56.9,49.3,42.5,99,78,40,30.22,30.08,10,0,11,0.01
2013-9-28,71.0,55.9,48.8,56.9,50.0,47.0,99,83,45,30.32,30.20,11,0,11,0.00
2013-9-29,49.2,46.6,45.0,48.3,45.6,44.0,99,96,92,30.22,30.18,3,0,3,0.01
2013-10-5,88.7,75.4,59.5,65.3,61.5,57.6,98,66,36,30.11,29.96,6,0,7,0.00
2013-10-6,88.0,71.7,57.3,63.8,58.9,52.2,98,69,30,30.00,29.81,16,2,17,0.00
2013-10-7,72.5,61.9,46.7,64.6,53.8,42.3,97,76,50,30.11,29.69,22,2,22,0.61
2013-10-8,67.1,51.5,39.8,47.3,43.4,38.8,98,77,41,30.33,30.11,10,1,12,0.00
2013-10-9,60.0,50.0,41.5,48.7,45.0,40.2,98,84,61,30.38,30.26,7,0,7,0.01
2013-10-10,54.4,52.0,50.3,51.5,50.2,48.1,97,93,86,30.27,30.07,5,0,5,0.33
2013-10-11,58.0,54.6,51.8,55.9,53.7,51.0,99,97,92,30.08,30.01,8,0,10,0.12
2013-10-12,61.9,58.8,56.2,61.6,58.4,55.8,99,99,96,30.18,30.02,7,1,7,0.16
2013-10-13,60.3,57.8,56.5,59.1,57.1,55.9,99,98,88,30.30,30.18,8,1,8,0.38
2013-10-14,61.9,58.7,56.5,58.9,56.6,55.4,99,93,81,30.31,30.22,5,0,5,0.00
2013-10-15,71.7,59.7,53.7,56.5,53.7,47.8,98,82,45,30.24,30.05,6,0,7,0.01
2013-10-16,69.6,57.9,46.9,59.4,53.3,46.1,99,86,58,30.05,29.89,3,0,3,0.00
2013-10-17,67.1,60.4,54.3,64.1,56.6,42.8,98,88,65,29.90,29.67,19,1,20,0.14
2013-10-18,67.9,54.8,42.2,45.4,40.0,35.2,92,60,33,30.04,29.90,18,2,18,0.00
2013-10-19,58.6,47.8,38.1,49.4,41.7,35.3,99,81,54,30.01,29.75,22,2,25,0.01
2013-10-20,64.5,49.0,35.5,38.0,33.7,28.1,90,58,27,30.10,29.95,16,2,18,0.00
2013-10-21,72.9,49.9,31.8,44.1,37.8,30.5,97,68,27,30.15,29.90,10,1,11,0.00
2013-10-22,59.2,48.6,36.2,47.5,39.0,28.4,95,73,33,29.91,29.84,18,1,18,0.00
2013-10-23,43.6,39.4,34.5,40.2,36.1,32.5,94,88,82,29.96,29.74,6,0,6,0.01
2013-10-24,46.3,42.6,39.3,38.5,31.9,24.5,82,67,44,30.17,29.94,15,2,15,0.00
2013-10-25,48.6,37.3,26.9,31.4,26.8,16.3,94,68,43,30.36,30.17,16,2,17,0.00
2013-10-26,59.5,41.5,23.5,31.3,23.8,15.5,95,57,18,30.34,29.95,22,2,22,0.00
2013-10-27,58.9,48.1,36.0,35.5,32.4,29.0,85,56,34,30.14,29.97,14,2,17,0.00
2013-10-28,62.5,43.2,29.1,41.0,34.7,27.9,96,75,41,30.30,30.14,6,0,7,0.00
2013-10-29,65.1,45.5,31.1,42.8,36.8,29.9,98,76,37,30.42,30.26,3,0,6,0.00
2013-10-30,67.9,53.8,43.8,53.2,46.5,40.0,90,77,56,30.30,30.11,5,0,5,0.00
2013-10-31,72.0,60.3,52.1,55.8,52.3,49.8,95,77,47,30.14,29.64,26,2,27,0.01
2013-11-1,72.5,64.2,48.9,58.3,47.7,36.4,92,58,29,29.70,29.46,31,5,36,0.18
2013-11-2,58.5,48.2,39.6,48.3,40.1,35.1,97,75,44,29.93,29.66,18,2,19,0.02
2013-11-3,55.0,45.4,29.9,38.0,29.7,19.2,80,57,26,30.45,29.92,14,2,14,0.00
2013-11-4,45.0,34.2,24.7,27.4,24.7,22.5,93,70,44,30.65,30.45,7,0,7,0.00
2013-11-5,52.8,39.6,30.6,33.2,28.3,23.4,87,66,35,30.64,30.43,6,0,6,0.00
2013-11-6,71.3,50.7,30.6,49.6,40.0,28.8,94,70,41,30.44,29.94,19,2,19,0.00
2013-11-7,60.6,50.7,39.1,52.0,38.1,20.7,89,62,43,30.14,29.84,20,3,20,0.03
2013-11-8,48.2,38.3,26.6,27.6,23.9,20.8,86,58,35,30.34,30.12,21,3,21,0.00
2013-11-9,63.7,42.6,25.0,30.0,24.7,20.9,92,56,20,30.35,30.01,13,1,13,0.00
2013-11-10,55.5,48.6,38.2,34.8,27.8,22.7,59,45,31,30.29,29.99,22,5,26,0.00
2013-11-11,61.1,45.6,27.5,30.3,22.9,6.4,85,47,12,30.33,29.99,16,1,17,0.00
2013-11-12,51.9,35.4,26.8,35.8,20.9,12.2,73,56,34,30.48,29.98,22,5,22,0.00
2013-11-13,38.5,29.4,20.9,17.7,15.3,11.0,78,57,35,30.56,30.40,16,2,18,0.00
2013-11-14,64.2,35.1,17.6,25.4,17.5,8.8,88,58,14,30.41,30.21,11,0,12,0.00
2013-11-15,64.6,41.6,22.9,38.0,23.6,12.6,86,57,14,30.32,30.15,10,0,10,0.01
2013-11-16,65.3,51.1,37.9,48.8,43.7,36.6,98,77,51,30.29,30.13,12,1,13,0.02
2013-11-17,64.2,59.9,53.5,57.3,50.9,39.2,83,72,63,30.13,29.63,31,5,35,0.05
2013-11-18,61.1,53.6,43.8,47.6,29.2,22.1,78,40,23,30.01,29.73,33,7,33,0.05
2013-11-19,44.5,36.7,25.3,26.3,23.3,20.5,84,59,46,30.43,30.00,19,3,19,0.00
2013-11-20,47.8,30.8,20.9,26.2,19.2,11.2,93,66,25,30.59,30.42,7,0,7,0.00
2013-11-21,47.8,34.7,23.4,33.5,27.5,18.0,88,76,55,30.56,30.33,7,0,7,0.00
2013-11-22,54.9,46.3,37.0,47.5,40.0,32.5,87,79,69,30.35,30.05,17,1,17,0.00
2013-11-23,48.1,36.5,23.8,41.6,22.1,5.8,78,57,35,30.32,30.12,22,6,24,0.00
2013-11-24,26.2,20.8,13.8,15.3,6.4,1.6,84,55,35,30.59,30.31,19,4,24,0.00
2013-11-25,40.5,25.9,11.4,20.0,9.7,4.4,84,54,24,30.59,30.27,8,0,8,0.00
2013-11-26,36.0,33.2,31.8,31.7,28.0,12.5,98,83,39,30.28,29.68,11,1,11,1.03
2013-11-27,35.6,30.8,24.3,33.5,24.1,10.8,99,77,54,30.18,29.65,19,4,22,0.02
2013-11-28,36.0,28.1,24.1,20.2,15.2,9.5,76,59,40,30.48,30.16,18,2,21,0.00
2013-11-29,40.9,29.0,20.1,23.9,20.1,17.1,88,71,42,30.72,30.47,8,0,10,0.00
2013-11-30,39.5,25.3,16.7,24.2,19.6,14.3,91,80,50,30.71,30.33,6,0,7,0.00
2013-12-1,44.1,32.4,18.4,34.0,26.3,16.5,93,79,57,30.35,29.98,4,0,5,0.00
2013-12-2,49.1,41.0,35.6,37.4,34.5,31.8,88,78,60,29.99,29.83,5,0,6,0.00
2013-12-3,60.2,41.4,33.1,39.2,34.8,31.3,95,80,43,29.97,29.87,5,0,5,0.00
2013-12-4,56.6,41.9,31.1,44.0,36.8,30.1,97,83,57,30.08,29.94,7,0,7,0.00
2013-12-5,67.3,49.0,36.2,53.8,43.7,34.9,97,83,60,30.03,29.85,10,0,10,0.04
2013-12-6,52.8,41.5,34.6,51.7,40.4,34.1,98,96,91,30.22,29.85,10,2,11,1.78
2013-12-7,36.8,32.1,24.3,34.3,26.0,19.5,98,79,58,30.58,30.18,13,1,13,0.00
2013-12-8,25.7,24.1,22.3,24.0,21.5,18.8,93,90,78,30.58,30.23,4,0,5,0.01
2013-12-9,41.2,30.4,25.3,38.1,28.8,23.6,97,94,87,30.28,30.03,4,0,5,0.61
2013-12-10,33.6,30.0,25.6,32.5,21.7,9.9,98,74,45,30.27,30.01,22,3,26,0.15
2013-12-11,44.7,31.2,19.2,19.0,13.2,6.0,68,48,25,30.40,30.23,24,2,25,0.20
2013-12-12,32.5,23.9,14.4,18.1,6.7,-0.5,71,49,27,30.46,30.25,21,3,25,0.01
2013-12-13,44.5,29.7,18.4,22.0,13.2,3.8,80,53,27,30.32,30.21,14,1,14,0.02
2013-12-14,33.3,30.7,27.2,32.0,28.9,21.9,98,93,77,30.30,29.69,3,0,6,0.21
2013-12-15,38.6,33.8,31.5,35.8,25.7,19.5,99,74,56,29.99,29.67,20,4,22,0.10
2013-12-16,34.8,31.7,29.0,25.1,23.3,19.5,83,71,55,30.15,29.97,17,1,19,0.00
2013-12-17,44.2,34.4,29.0,32.8,26.8,20.8,88,74,56,30.11,29.92,18,1,20,0.00
2013-12-18,38.6,31.3,24.1,23.0,19.0,16.1,82,61,43,30.23,30.03,19,2,20,0.00
2013-12-19,62.2,42.0,23.5,31.4,24.9,17.8,81,55,25,30.18,30.06,21,2,21,0.00
2013-12-20,63.3,48.3,31.4,40.7,31.4,26.3,89,56,27,30.09,29.94,18,3,19,0.00
2013-12-21,73.0,63.0,51.5,56.7,47.7,39.7,66,58,41,29.96,29.72,27,6,28,0.00
2013-12-22,71.3,62.3,56.6,59.6,54.9,51.2,97,78,61,29.94,29.69,29,4,30,0.16
2013-12-23,58.0,45.5,32.5,55.6,38.5,22.1,99,77,60,30.27,29.88,19,3,19,0.23
2013-12-24,35.2,27.5,17.3,23.5,14.5,2.7,69,58,37,30.53,30.24,20,4,22,0.00
2013-12-25,36.5,24.6,14.2,15.9,10.9,-15.7,77,58,31,30.58,30.28,10,1,11,0.00
2013-12-26,43.1,33.3,25.3,22.5,16.5,9.5,78,52,28,30.39,30.22,19,2,22,0.00
2013-12-27,50.9,33.2,22.0,20.9,16.9,8.5,81,56,20,30.42,30.32,14,1,14,0.00
2013-12-28,59.1,39.3,23.5,28.7,22.5,17.7,84,56,21,30.36,30.07,14,1,17,0.00
2013-12-29,45.5,41.0,36.5,43.9,37.0,27.4,99,86,66,30.09,29.62,20,1,20,1.24
2013-12-30,44.7,36.1,29.3,34.7,26.7,21.2,78,68,60,30.18,29.86,18,3,19,0.00
2013-12-31,36.9,29.8,23.5,24.2,17.8,12.4,78,61,41,30.33,30.12,33,3,33,0.00
2014-1-1,50.4,29.7,21.2,27.4,20.5,15.7,87,71,31,30.41,30.08,8,0,8,0.00
2014-1-2,30.8,27.2,20.8,27.3,23.3,7.4,95,85,60,30.09,29.69,16,1,18,0.01